Potomac, IL (61865)

11:04 AM CDT on September 05, 2015 (GMT -0500)
Pilot Twp | | Change Station
CLOSE
Current Station
Personal Weather Station
Location: Potomac, IL
Elevation: 738 ft
Nearby Weather Stations
Active Advisory: Flash Flood Warning Active Notice: Local Storm Report

Elev 738 ft 40.26 °N, 87.88 °W | Updated 14 minutes ago

Partly Cloudy
Partly Cloudy
80.1 °F
Feels Like 82 °F
N
4.0
Wind Variable Wind from SSE
Gusts 9.0 mph

Today
High -- | Low -- °F
--% Chance of Precip.
Yesterday
High -- | Low -- °F
Precip. -- in
6:22 AM 7:16 PM
Waning Gibbous, 47% visible
Pressure 30.10 in
Visibility 10.0 miles
Clouds Clear
Heat Index 82 °F
Dew Point 66 °F
Humidity 63%
Rainfall 0.00 in
Snow Depth Not available.
UV 7 out of 12
Pollen 10.10 out of 12
Air Quality Not available.
Flu Activity Not available.
METAR KDNV 051555Z AUTO 22004KT 10SM CLR 22/20 A3010 RMK AO2 T02220196
Pressure 30.10 in
Visibility 10.0 miles
Clouds Clear
Heat Index 82 °F
Dew Point 66 °F
Humidity 63%
Rainfall 0.00 in
Snow Depth Not available.
UV 7 out of 12
Pollen 10.10 out of 12
Air Quality Not available.
Flu Activity Not available.
METAR KDNV 051555Z AUTO 22004KT 10SM CLR 22/20 A3010 RMK AO2 T02220196

10-Day Weather Forecast

×

Almanac

Astronomy

Sep. 05, 2015 Rise Set
Actual Time
Civil Twilight
Nautical Twilight
Astronomical Twilight
Moon
Length of Visible Light
Length of Day
Tomorrow will be .
, % of the Moon is Illuminated

Today's Extremes

State Highs State Lows

Community

WunderPhotos

Upload Photos

1,852,495 photos uploaded!

WunderBlogs® & News

Nearby

Air Quality

  Air Quality AQ Index Pollutant
Not available.

Snow Depth

Station Depth Elevation

Earthquake Activity

City Distance Mag. Time & Date
Minimum magnitude displayed is 2.5.

Coastal Water Temperatures

Place Temperature

Stations

Nearby Weather Stations

Station Location Temp. Windchill Dew Point Humidity Wind Precip. Elev Updated Type
                   
Flash Flood Warning
Statement as of 9:52 AM CDT on September 05, 2015

... The Flash Flood Warning remains in effect until 1230 PM CDT for
northeastern Vermilion County...

At 945 am CDT... trained weather spotters reported flash flooding in
Hoopeston with rainfall totals of 3.25 inches since the rain started
earlier this morning. Total rainfall... including last nights rains...
were up to 4.25 inches around the Hoopeston area. A Doppler rainfall
estimate of over 5 inches was located about a mile east of Hoopeston.
Flash flooding is already occurring.

Some locations that will experience flooding include...
Hoopeston and Alvin.

Additional rainfall amounts of 1 to 2 inches will be possible over the
next hour from Hoopeston to Alvin and east across the remainder of
the warned area.

Precautionary/preparedness actions...

Turn around... dont drown when encountering flooded roads. Most flood
deaths occur in vehicles.


Lat... Lon 4030 8762 4049 8773 4049 8753 4031 8753


Smith